»·PEaware :: N35DM KSNA-KSNA

N35DM :: KSNA-KSNA

FLIGHT INFORMATION

Flight Status: Arrived
Operator: Privately registered:
United States
More flights under this callsign
Pilot: Northwest Flight Service (22302)
Aircraft: CESSNA 172 SKYHAWK
(C172)
More flights by this aircraft type
Origin: KSNA John Wayne-Orange Co
United States
Destination: KSNA John Wayne-Orange Co
United States
More flights between these airports :: More routes between these airports
Route: SLI
File this flight plan on PilotEdge
Remarks: Request ILS20R
Altitude:
(Current/Filed)
3,000ft
Speed:
(Current/Filed)
100kts
Departed: 01-Dec-20 06:00 PM
Arrived: 01-Dec-20 06:32 PM
Distance/Time
Traveled:
0nm/0:31
Distance/Time
To Go:
Arrived

Flight Plot

Page will automatically refresh every two minutes.


Map Options




Map Legend


Flown Route
Filed Route
Departure Airport
Arrival Airport
Navaid (VOR, NDB)
Fix

Horizontal Profiles

Position Reports

Time Latitude Longitude Heading Altitude Ground
Speed
01-Dec-20 17:42 33.671009 -117.867463 27 49ft 0kts
01-Dec-20 17:43 33.671009 -117.867463 27 49ft 0kts
01-Dec-20 17:44 33.671009 -117.867463 27 49ft 0kts
01-Dec-20 17:45 33.671009 -117.867463 27 49ft 0kts
01-Dec-20 17:46 33.671009 -117.867463 27 49ft 0kts
01-Dec-20 17:47 33.671009 -117.867463 27 49ft 0kts
01-Dec-20 17:48 33.671009 -117.867463 27 49ft 0kts
01-Dec-20 17:49 33.671009 -117.867463 27 49ft 0kts
01-Dec-20 17:50 33.671110 -117.867465 329 49ft 6kts
01-Dec-20 17:51 33.672233 -117.868062 31 49ft 7kts
01-Dec-20 17:52 33.673914 -117.867209 16 47ft 2kts
01-Dec-20 17:53 33.677828 -117.864752 28 43ft 17kts
01-Dec-20 17:54 33.679957 -117.863639 304 39ft 0kts
01-Dec-20 17:55 33.679957 -117.863639 304 39ft 0kts
01-Dec-20 17:56 33.679957 -117.863639 304 39ft 0kts
01-Dec-20 17:57 33.679957 -117.863639 304 39ft 0kts
01-Dec-20 17:58 33.680454 -117.865836 212 40ft 7kts
01-Dec-20 17:59 33.665934 -117.876491 216 605ft 78kts
01-Dec-20 18:00 33.650055 -117.893353 220 1521ft 77kts
01-Dec-20 18:01 33.631669 -117.910886 205 2355ft 90kts
01-Dec-20 18:02 33.637086 -117.927273 15 3145ft 105kts
01-Dec-20 18:03 33.667039 -117.911552 26 3144ft 111kts
01-Dec-20 18:04 33.695621 -117.894859 22 2763ft 111kts
01-Dec-20 18:05 33.722553 -117.882246 22 2674ft 104kts
01-Dec-20 18:06 33.747119 -117.871807 19 2913ft 85kts
01-Dec-20 18:07 33.770094 -117.858279 27 2924ft 97kts
01-Dec-20 18:08 33.794127 -117.843963 26 2986ft 96kts
01-Dec-20 18:09 33.818638 -117.830722 21 3027ft 97kts
01-Dec-20 18:10 33.843832 -117.818579 19 3017ft 100kts
01-Dec-20 18:11 33.869923 -117.809190 17 3053ft 98kts
01-Dec-20 18:12 33.887249 -117.786776 55 3173ft 90kts
01-Dec-20 18:13 33.903826 -117.759524 66 3520ft 120kts
01-Dec-20 18:14 33.915245 -117.723123 63 3549ft 113kts
01-Dec-20 18:15 33.938349 -117.700803 26 3472ft 109kts
01-Dec-20 18:16 33.964598 -117.700662 294 3399ft 102kts
01-Dec-20 18:17 33.945034 -117.708598 169 3236ft 95kts
01-Dec-20 18:18 33.922670 -117.708082 200 3268ft 85kts
01-Dec-20 18:19 33.904520 -117.723179 243 3290ft 80kts
01-Dec-20 18:20 33.889446 -117.739054 178 3297ft 84kts
01-Dec-20 18:21 33.864456 -117.745014 205 3410ft 101kts
01-Dec-20 18:23 33.838645 -117.761573 208 3208ft 109kts
01-Dec-20 18:24 33.816070 -117.780331 209 2692ft 82kts
01-Dec-20 18:25 33.796749 -117.791817 193 2516ft 78kts
01-Dec-20 18:26 33.775060 -117.800873 213 2404ft 102kts
01-Dec-20 18:27 33.754579 -117.821555 197 1693ft 99kts
01-Dec-20 18:28 33.730412 -117.833116 211 1150ft 84kts
01-Dec-20 18:29 33.710292 -117.848296 206 664ft 89kts
01-Dec-20 18:30 33.688592 -117.860841 208 213ft 88kts
01-Dec-20 18:31 33.671014 -117.871788 207 51ft 42kts
01-Dec-20 18:32 33.669365 -117.874470 25 52ft 11kts

Navigation Log

Ident Type
Flight plan parsing failed, navigation log unavailable